Time,TemperatureF,DewpointF,PressureIn,WindDirection,WindDirectionDegrees,WindSpeedMPH,WindSpeedGustMPH,Humidity,HourlyPrecipIn,Conditions,Clouds,dailyrainin,SolarRadiationWatts/m^2,SoftwareType,DateUTC
2013-05-14 00:00:00,42.3,32.9,30.11,SW,221,0.0,2.0,69,0.00,,,0.00,0.0,meteohub,2013-05-14 04:00:00,
2013-05-14 00:01:00,42.3,33.3,30.12,SW,221,0.0,2.0,70,0.00,,,0.00,0.0,meteohub,2013-05-14 04:01:00,
2013-05-14 00:02:00,42.3,32.9,30.12,SW,221,0.0,2.0,69,0.00,,,0.00,0.0,meteohub,2013-05-14 04:02:00,
2013-05-14 00:06:00,42.1,32.7,30.11,SW,221,0.0,2.0,69,0.00,,,0.00,0.0,meteohub,2013-05-14 04:06:00,
2013-05-14 00:11:00,42.1,32.4,30.12,SSW,202,0.0,2.0,68,0.00,,,0.00,0.0,meteohub,2013-05-14 04:11:00,
2013-05-14 00:16:00,42.1,32.7,30.11,SSW,202,0.0,2.0,69,0.00,,,0.00,0.0,meteohub,2013-05-14 04:16:00,
2013-05-14 00:21:00,41.9,32.5,30.11,SW,235,0.0,2.0,69,0.00,,,0.00,0.0,meteohub,2013-05-14 04:21:00,
2013-05-14 00:26:00,41.9,32.5,30.11,South,179,0.0,2.0,69,0.00,,,0.00,0.0,meteohub,2013-05-14 04:26:00,
2013-05-14 00:31:00,41.7,33.1,30.11,SSW,198,0.0,2.0,71,0.00,,,0.00,0.0,meteohub,2013-05-14 04:31:00,
2013-05-14 00:36:00,41.7,33.4,30.11,SSW,192,0.0,2.0,72,0.00,,,0.00,0.0,meteohub,2013-05-14 04:36:00,
2013-05-14 00:41:00,41.5,33.6,30.11,SSW,192,0.0,1.0,73,0.00,,,0.00,0.0,meteohub,2013-05-14 04:41:00,
2013-05-14 00:46:00,41.5,33.6,30.10,SSW,192,0.0,1.0,73,0.00,,,0.00,0.0,meteohub,2013-05-14 04:46:00,
2013-05-14 00:51:00,41.5,32.5,30.10,WSW,250,0.0,3.0,70,0.00,,,0.00,0.0,meteohub,2013-05-14 04:51:00,
2013-05-14 00:56:00,41.5,31.8,30.10,ESE,109,0.0,3.0,68,0.00,,,0.00,0.0,meteohub,2013-05-14 04:56:00,
2013-05-14 01:01:00,41.7,33.4,30.10,East,96,0.0,3.0,72,0.00,,,0.00,0.0,meteohub,2013-05-14 05:01:00,
2013-05-14 01:06:00,41.5,33.3,30.10,East,98,1.0,3.0,72,0.00,,,0.00,0.0,meteohub,2013-05-14 05:06:00,
2013-05-14 01:12:00,41.4,33.1,30.10,East,98,0.0,3.0,72,0.00,,,0.00,0.0,meteohub,2013-05-14 05:12:00,
2013-05-14 01:17:00,41.2,33.4,30.10,East,98,0.0,3.0,74,0.00,,,0.00,0.0,meteohub,2013-05-14 05:17:00,
2013-05-14 01:22:00,40.8,33.4,30.10,East,98,0.0,2.0,75,0.00,,,0.00,0.0,meteohub,2013-05-14 05:22:00,
2013-05-14 01:27:00,40.6,33.3,30.10,East,98,0.0,2.0,75,0.00,,,0.00,0.0,meteohub,2013-05-14 05:27:00,
2013-05-14 01:32:00,40.3,33.1,30.10,SSE,149,5.0,5.0,75,0.00,,,0.00,0.0,meteohub,2013-05-14 05:32:00,
2013-05-14 01:37:00,40.3,33.3,30.10,SSW,196,0.0,7.0,76,0.00,,,0.00,0.0,meteohub,2013-05-14 05:37:00,
2013-05-14 01:42:00,40.1,32.9,30.10,SSE,161,1.0,7.0,75,0.00,,,0.00,0.0,meteohub,2013-05-14 05:42:00,
2013-05-14 01:47:00,39.9,33.3,30.10,SE,140,0.0,7.0,77,0.00,,,0.00,0.0,meteohub,2013-05-14 05:47:00,
2013-05-14 01:52:00,39.7,33.1,30.10,East,86,0.0,5.0,77,0.00,,,0.00,0.0,meteohub,2013-05-14 05:52:00,
2013-05-14 01:57:00,39.7,33.1,30.10,East,86,0.0,3.0,77,0.00,,,0.00,0.0,meteohub,2013-05-14 05:57:00,
2013-05-14 02:02:00,39.6,32.5,30.10,East,86,1.0,3.0,76,0.00,,,0.00,0.0,meteohub,2013-05-14 06:02:00,
2013-05-14 02:07:00,39.6,32.9,30.10,SSE,167,0.0,3.0,77,0.00,,,0.00,0.0,meteohub,2013-05-14 06:07:00,
2013-05-14 02:12:00,39.6,32.5,30.10,East,80,0.0,3.0,76,0.00,,,0.00,0.0,meteohub,2013-05-14 06:12:00,
2013-05-14 02:17:00,39.4,33.1,30.10,East,80,0.0,3.0,78,0.00,,,0.00,0.0,meteohub,2013-05-14 06:17:00,
2013-05-14 02:22:00,39.2,32.9,30.10,East,80,0.0,3.0,78,0.00,,,0.00,0.0,meteohub,2013-05-14 06:22:00,
2013-05-14 02:27:00,39.0,33.1,30.10,East,79,0.0,2.0,79,0.00,,,0.00,0.0,meteohub,2013-05-14 06:27:00,
2013-05-14 02:32:00,38.8,32.5,30.10,East,79,1.0,3.0,78,0.00,,,0.00,0.0,meteohub,2013-05-14 06:32:00,
2013-05-14 02:37:00,38.8,33.3,30.10,East,79,0.0,3.0,80,0.00,,,0.00,0.0,meteohub,2013-05-14 06:37:00,
2013-05-14 02:42:00,38.8,32.9,30.10,ENE,63,0.0,2.0,79,0.00,,,0.00,0.0,meteohub,2013-05-14 06:42:00,
2013-05-14 02:47:00,39.0,33.4,30.10,ENE,65,0.0,3.0,80,0.00,,,0.00,0.0,meteohub,2013-05-14 06:47:00,
2013-05-14 02:52:00,39.0,33.6,30.10,East,87,0.0,3.0,81,0.00,,,0.00,0.0,meteohub,2013-05-14 06:52:00,
2013-05-14 02:57:00,39.0,33.4,30.11,South,178,0.0,3.0,80,0.00,,,0.00,0.0,meteohub,2013-05-14 06:57:00,
2013-05-14 03:02:00,39.4,33.1,30.10,ENE,63,0.0,5.0,78,0.00,,,0.00,0.0,meteohub,2013-05-14 07:02:00,
2013-05-14 03:07:00,39.6,34.0,30.11,East,85,0.0,5.0,80,0.00,,,0.00,0.0,meteohub,2013-05-14 07:07:00,
2013-05-14 03:12:00,39.4,33.1,30.11,SW,234,0.0,5.0,78,0.00,,,0.00,0.0,meteohub,2013-05-14 07:12:00,
2013-05-14 03:17:00,39.4,33.1,30.11,East,86,0.0,5.0,78,0.00,,,0.00,0.0,meteohub,2013-05-14 07:17:00,
2013-05-14 03:22:00,39.2,33.3,30.11,SSW,207,0.0,5.0,79,0.00,,,0.00,0.0,meteohub,2013-05-14 07:22:00,
2013-05-14 03:27:00,39.0,33.4,30.11,SSW,207,0.0,4.0,80,0.00,,,0.00,0.0,meteohub,2013-05-14 07:27:00,
2013-05-14 03:33:00,38.8,32.9,30.11,SSE,152,1.0,2.0,79,0.00,,,0.00,0.0,meteohub,2013-05-14 07:33:00,
2013-05-14 03:38:00,38.7,33.3,30.11,ESE,123,0.0,2.0,81,0.00,,,0.00,0.0,meteohub,2013-05-14 07:38:00,
2013-05-14 03:43:00,38.5,33.1,30.11,ESE,120,0.0,2.0,81,0.00,,,0.00,0.0,meteohub,2013-05-14 07:43:00,
2013-05-14 03:48:00,38.7,34.0,30.11,ESE,120,0.0,2.0,83,0.00,,,0.00,0.0,meteohub,2013-05-14 07:48:00,
2013-05-14 03:53:00,38.7,33.3,30.11,SE,135,0.0,1.0,81,0.00,,,0.00,0.0,meteohub,2013-05-14 07:53:00,
2013-05-14 03:58:00,38.7,33.3,30.11,SSW,207,0.0,2.0,81,0.00,,,0.00,0.0,meteohub,2013-05-14 07:58:00,
2013-05-14 04:03:00,38.7,34.0,30.11,South,187,0.0,2.0,83,0.00,,,0.00,0.0,meteohub,2013-05-14 08:03:00,
2013-05-14 04:08:00,38.7,33.6,30.11,NW,319,0.0,2.0,82,0.00,,,0.00,0.0,meteohub,2013-05-14 08:08:00,
2013-05-14 04:13:00,38.7,33.6,30.11,SE,143,0.0,4.0,82,0.00,,,0.00,0.0,meteohub,2013-05-14 08:13:00,
2013-05-14 04:18:00,38.7,33.6,30.11,SE,143,0.0,4.0,82,0.00,,,0.00,0.0,meteohub,2013-05-14 08:18:00,
2013-05-14 04:23:00,38.5,33.8,30.12,SE,143,0.0,4.0,83,0.00,,,0.00,0.0,meteohub,2013-05-14 08:23:00,
2013-05-14 04:28:00,38.5,33.4,30.12,SE,143,0.0,1.0,82,0.00,,,0.00,0.0,meteohub,2013-05-14 08:28:00,
2013-05-14 04:34:00,38.1,33.1,30.12,SE,143,0.0,1.0,82,0.00,,,0.00,0.0,meteohub,2013-05-14 08:34:00,
2013-05-14 04:39:00,37.9,33.6,30.12,SE,143,0.0,1.0,84,0.00,,,0.00,0.0,meteohub,2013-05-14 08:39:00,
2013-05-14 04:44:00,37.9,33.3,30.12,SE,143,0.0,1.0,83,0.00,,,0.00,0.0,meteohub,2013-05-14 08:44:00,
2013-05-14 04:49:00,37.8,33.4,30.12,SE,143,0.0,1.0,84,0.00,,,0.00,0.0,meteohub,2013-05-14 08:49:00,
2013-05-14 04:54:00,37.6,33.3,30.12,SE,143,0.0,1.0,84,0.00,,,0.00,0.0,meteohub,2013-05-14 08:54:00,
2013-05-14 04:59:00,37.2,33.1,30.12,SE,143,0.0,1.0,85,0.00,,,0.00,0.0,meteohub,2013-05-14 08:59:00,
2013-05-14 05:04:00,37.0,33.3,30.12,SE,143,0.0,1.0,86,0.00,,,0.00,0.0,meteohub,2013-05-14 09:04:00,
2013-05-14 05:09:00,36.9,33.1,30.12,SE,143,0.0,1.0,86,0.00,,,0.00,0.0,meteohub,2013-05-14 09:09:00,
2013-05-14 05:14:00,36.7,33.3,30.12,SE,143,0.0,1.0,87,0.00,,,0.00,0.0,meteohub,2013-05-14 09:14:00,
2013-05-14 05:19:00,36.5,33.1,30.12,SE,143,0.0,1.0,87,0.00,,,0.00,0.0,meteohub,2013-05-14 09:19:00,
2013-05-14 05:24:00,36.3,32.9,30.12,SE,143,0.0,1.0,87,0.00,,,0.00,0.0,meteohub,2013-05-14 09:24:00,
2013-05-14 05:29:00,36.1,32.9,30.12,SE,143,0.0,1.0,88,0.00,,,0.00,0.0,meteohub,2013-05-14 09:29:00,
2013-05-14 05:34:00,36.0,32.7,30.12,SE,143,0.0,1.0,88,0.00,,,0.00,0.0,meteohub,2013-05-14 09:34:00,
2013-05-14 05:40:00,35.8,32.9,30.12,ESE,120,0.0,1.0,89,0.00,,,0.00,0.0,meteohub,2013-05-14 09:40:00,
2013-05-14 05:45:00,35.6,32.7,30.12,ESE,120,0.0,2.0,89,0.00,,,0.00,5.0,meteohub,2013-05-14 09:45:00,
2013-05-14 05:50:00,35.4,32.5,30.12,ESE,120,0.0,2.0,89,0.00,,,0.00,5.0,meteohub,2013-05-14 09:50:00,
2013-05-14 05:55:00,35.4,32.7,30.12,ESE,120,0.0,1.0,90,0.00,,,0.00,7.0,meteohub,2013-05-14 09:55:00,
2013-05-14 06:00:00,35.4,32.7,30.12,ESE,120,0.0,1.0,90,0.00,,,0.00,9.0,meteohub,2013-05-14 10:00:00,
2013-05-14 06:05:00,35.4,32.7,30.12,ESE,120,0.0,1.0,90,0.00,,,0.00,12.0,meteohub,2013-05-14 10:05:00,
2013-05-14 06:10:00,35.4,33.1,30.13,NE,53,0.0,3.0,91,0.00,,,0.00,16.0,meteohub,2013-05-14 10:10:00,
2013-05-14 06:15:00,35.4,33.1,30.13,NE,53,0.0,3.0,91,0.00,,,0.00,18.0,meteohub,2013-05-14 10:15:00,
2013-05-14 06:20:00,35.6,33.3,30.13,East,85,0.0,3.0,91,0.00,,,0.00,21.0,meteohub,2013-05-14 10:20:00,
2013-05-14 06:26:00,35.8,33.4,30.13,East,85,0.0,2.0,91,0.00,,,0.00,23.0,meteohub,2013-05-14 10:26:00,
2013-05-14 06:31:00,36.0,33.3,30.13,East,88,0.0,2.0,90,0.00,,,0.00,25.0,meteohub,2013-05-14 10:31:00,
2013-05-14 06:36:00,36.1,33.4,30.13,East,88,0.0,2.0,90,0.00,,,0.00,28.0,meteohub,2013-05-14 10:36:00,
2013-05-14 06:41:00,36.3,34.0,30.13,East,88,0.0,2.0,91,0.00,,,0.00,30.0,meteohub,2013-05-14 10:41:00,
2013-05-14 06:46:00,36.3,34.0,30.13,East,88,0.0,2.0,91,0.00,,,0.00,32.0,meteohub,2013-05-14 10:46:00,
2013-05-14 06:51:00,36.7,34.3,30.13,East,88,0.0,0.0,91,0.00,,,0.00,35.0,meteohub,2013-05-14 10:51:00,
2013-05-14 07:01:00,37.0,34.3,30.14,East,88,0.0,0.0,90,0.00,,,0.00,39.0,meteohub,2013-05-14 11:01:00,
2013-05-14 07:07:00,37.4,34.7,30.14,East,88,0.0,0.0,90,0.00,,,0.00,40.0,meteohub,2013-05-14 11:07:00,
2013-05-14 07:12:00,37.8,35.1,30.14,East,88,0.0,0.0,90,0.00,,,0.00,42.0,meteohub,2013-05-14 11:12:00,
2013-05-14 07:17:00,37.9,35.1,30.14,East,88,0.0,0.0,89,0.00,,,0.00,46.0,meteohub,2013-05-14 11:17:00,
2013-05-14 07:22:00,38.3,35.4,30.13,East,88,0.0,1.0,89,0.00,,,0.00,44.0,meteohub,2013-05-14 11:22:00,
2013-05-14 07:27:00,38.7,35.1,30.14,East,88,1.0,1.0,87,0.00,,,0.00,46.0,meteohub,2013-05-14 11:27:00,
2013-05-14 07:32:00,39.0,36.1,30.14,East,88,0.0,1.0,89,0.00,,,0.00,47.0,meteohub,2013-05-14 11:32:00,
2013-05-14 07:37:00,39.4,36.1,30.14,East,88,0.0,1.0,88,0.00,,,0.00,49.0,meteohub,2013-05-14 11:37:00,
2013-05-14 07:42:00,39.6,35.8,30.14,East,88,0.0,1.0,86,0.00,,,0.00,51.0,meteohub,2013-05-14 11:42:00,
2013-05-14 07:47:00,39.9,34.9,30.14,East,88,0.0,1.0,82,0.00,,,0.00,53.0,meteohub,2013-05-14 11:47:00,
2013-05-14 07:52:00,40.5,35.4,30.14,East,92,0.0,2.0,82,0.00,,,0.00,53.0,meteohub,2013-05-14 11:52:00,
2013-05-14 07:57:00,41.0,35.6,30.14,East,92,0.0,2.0,81,0.00,,,0.00,54.0,meteohub,2013-05-14 11:57:00,
2013-05-14 08:02:00,41.4,35.6,30.14,South,184,0.0,4.0,80,0.00,,,0.00,56.0,meteohub,2013-05-14 12:02:00,
2013-05-14 08:07:00,41.7,35.8,30.14,SSE,163,0.0,4.0,79,0.00,,,0.00,58.0,meteohub,2013-05-14 12:07:00,
2013-05-14 08:12:00,42.3,36.0,30.14,SE,134,0.0,4.0,78,0.00,,,0.00,95.0,meteohub,2013-05-14 12:12:00,
2013-05-14 08:17:00,42.8,35.4,30.14,SE,128,1.0,2.0,75,0.00,,,0.00,62.0,meteohub,2013-05-14 12:17:00,
2013-05-14 08:22:00,43.2,34.7,30.14,SW,234,1.0,2.0,72,0.00,,,0.00,62.0,meteohub,2013-05-14 12:22:00,
2013-05-14 08:27:00,43.9,34.3,30.14,SSW,196,0.0,4.0,69,0.00,,,0.00,160.0,meteohub,2013-05-14 12:27:00,
2013-05-14 08:32:00,44.2,34.0,30.14,SSW,200,0.0,4.0,67,0.00,,,0.00,125.0,meteohub,2013-05-14 12:32:00,
2013-05-14 08:37:00,44.8,34.9,30.14,North,5,0.0,4.0,68,0.00,,,0.00,494.0,meteohub,2013-05-14 12:37:00,
2013-05-14 08:42:00,45.7,35.8,30.14,North,5,0.0,3.0,68,0.00,,,0.00,510.0,meteohub,2013-05-14 12:42:00,
2013-05-14 08:47:00,46.6,33.8,30.14,SSE,167,0.0,3.0,61,0.00,,,0.00,526.0,meteohub,2013-05-14 12:47:00,
2013-05-14 08:52:00,47.3,34.2,30.14,ENE,78,1.0,2.0,60,0.00,,,0.00,540.0,meteohub,2013-05-14 12:52:00,
2013-05-14 08:57:00,48.0,34.0,30.13,ENE,78,1.0,2.0,58,0.00,,,0.00,555.0,meteohub,2013-05-14 12:57:00,
2013-05-14 09:02:00,48.6,33.1,30.13,ENE,71,0.0,2.0,55,0.00,,,0.00,571.0,meteohub,2013-05-14 13:02:00,
2013-05-14 09:07:00,49.5,32.5,30.13,SE,131,0.0,2.0,52,0.00,,,0.00,587.0,meteohub,2013-05-14 13:07:00,
2013-05-14 09:12:00,50.4,33.4,30.13,ESE,104,1.0,2.0,52,0.00,,,0.00,601.0,meteohub,2013-05-14 13:12:00,
2013-05-14 09:17:00,50.7,31.3,30.13,NE,41,1.0,3.0,47,0.00,,,0.00,617.0,meteohub,2013-05-14 13:17:00,
2013-05-14 09:22:00,51.3,31.1,30.12,SW,224,3.0,3.0,46,0.00,,,0.00,628.0,meteohub,2013-05-14 13:22:00,
2013-05-14 09:27:00,51.4,29.7,30.12,South,185,2.0,4.0,43,0.00,,,0.00,642.0,meteohub,2013-05-14 13:27:00,
2013-05-14 09:32:00,51.8,30.6,30.12,WSW,258,2.0,4.0,44,0.00,,,0.00,652.0,meteohub,2013-05-14 13:32:00,
2013-05-14 09:37:00,52.3,31.1,30.12,NNW,337,1.0,4.0,44,0.00,,,0.00,670.0,meteohub,2013-05-14 13:37:00,
2013-05-14 09:42:00,52.5,30.0,30.12,NNW,344,2.0,4.0,42,0.00,,,0.00,701.0,meteohub,2013-05-14 13:42:00,
2013-05-14 09:47:00,52.7,29.1,30.12,SE,129,1.0,5.0,40,0.00,,,0.00,125.0,meteohub,2013-05-14 13:47:00,
2013-05-14 09:52:00,52.5,28.2,30.12,NNW,338,0.0,5.0,39,0.00,,,0.00,294.0,meteohub,2013-05-14 13:52:00,
2013-05-14 09:57:00,51.8,28.2,30.12,SW,220,1.0,5.0,40,0.00,,,0.00,141.0,meteohub,2013-05-14 13:57:00,
2013-05-14 10:02:00,51.3,28.9,30.12,SSW,213,1.0,4.0,42,0.00,,,0.00,144.0,meteohub,2013-05-14 14:02:00,
2013-05-14 10:07:00,50.9,27.5,30.12,SSW,202,0.0,4.0,40,0.00,,,0.00,158.0,meteohub,2013-05-14 14:07:00,
2013-05-14 10:12:00,50.9,29.1,30.12,SW,229,1.0,4.0,43,0.00,,,0.00,875.0,meteohub,2013-05-14 14:12:00,
2013-05-14 10:17:00,51.3,28.9,30.12,ENE,77,3.0,3.0,42,0.00,,,0.00,332.0,meteohub,2013-05-14 14:17:00,
2013-05-14 10:22:00,51.4,29.1,30.12,ENE,74,3.0,4.0,42,0.00,,,0.00,269.0,meteohub,2013-05-14 14:22:00,
2013-05-14 10:27:00,51.4,27.3,30.11,ENE,63,0.0,4.0,39,0.00,,,0.00,308.0,meteohub,2013-05-14 14:27:00,
2013-05-14 10:32:00,52.3,32.2,30.11,WNW,292,0.0,4.0,46,0.00,,,0.00,937.0,meteohub,2013-05-14 14:32:00,
2013-05-14 10:37:00,53.2,27.0,30.11,NNE,23,0.0,5.0,36,0.00,,,0.00,919.0,meteohub,2013-05-14 14:37:00,
2013-05-14 10:43:00,54.1,27.7,30.11,ENE,74,1.0,5.0,36,0.00,,,0.00,977.0,meteohub,2013-05-14 14:43:00,
2013-05-14 10:48:00,54.9,27.0,30.11,ESE,107,0.0,5.0,34,0.00,,,0.00,962.0,meteohub,2013-05-14 14:48:00,
2013-05-14 10:53:00,55.2,28.0,30.11,East,91,0.0,5.0,35,0.00,,,0.00,995.0,meteohub,2013-05-14 14:53:00,
2013-05-14 10:58:00,55.6,26.2,30.11,SSW,192,3.0,5.0,32,0.00,,,0.00,1014.0,meteohub,2013-05-14 14:58:00,
2013-05-14 11:03:00,55.8,29.1,30.11,SSW,205,1.0,4.0,36,0.00,,,0.00,1004.0,meteohub,2013-05-14 15:03:00,
2013-05-14 11:08:00,56.1,30.9,30.10,NNW,331,1.0,4.0,38,0.00,,,0.00,1018.0,meteohub,2013-05-14 15:08:00,
2013-05-14 11:13:00,56.7,27.1,30.10,East,92,0.0,4.0,32,0.00,,,0.00,1034.0,meteohub,2013-05-14 15:13:00,
2013-05-14 11:18:00,56.7,27.1,30.10,ENE,69,0.0,5.0,32,0.00,,,0.00,993.0,meteohub,2013-05-14 15:18:00,
2013-05-14 11:23:00,56.8,32.2,30.10,West,265,1.0,5.0,39,0.00,,,0.00,960.0,meteohub,2013-05-14 15:23:00,
2013-05-14 11:28:00,56.7,31.3,30.10,East,93,2.0,5.0,38,0.00,,,0.00,969.0,meteohub,2013-05-14 15:28:00,
2013-05-14 11:33:00,57.0,32.4,30.10,ESE,110,0.0,5.0,39,0.00,,,0.00,977.0,meteohub,2013-05-14 15:33:00,
2013-05-14 11:38:00,57.0,30.4,30.10,ESE,115,2.0,7.0,36,0.00,,,0.00,953.0,meteohub,2013-05-14 15:38:00,
2013-05-14 11:43:00,57.4,30.6,30.09,NNE,15,2.0,7.0,36,0.00,,,0.00,949.0,meteohub,2013-05-14 15:43:00,
2013-05-14 11:48:00,57.4,31.3,30.09,WSW,254,3.0,6.0,37,0.00,,,0.00,976.0,meteohub,2013-05-14 15:48:00,
2013-05-14 11:54:00,57.6,27.9,30.09,NE,49,0.0,4.0,32,0.00,,,0.00,1023.0,meteohub,2013-05-14 15:54:00,
2013-05-14 11:59:00,57.6,30.0,30.10,North,0,1.0,4.0,35,0.00,,,0.00,956.0,meteohub,2013-05-14 15:59:00,
2013-05-14 12:04:00,57.4,27.7,30.10,ESE,117,0.0,4.0,32,0.00,,,0.00,960.0,meteohub,2013-05-14 16:04:00,
2013-05-14 12:09:00,57.9,27.5,30.10,SSW,192,0.0,3.0,31,0.00,,,0.00,990.0,meteohub,2013-05-14 16:09:00,
2013-05-14 12:14:00,58.6,26.4,30.10,NNW,338,1.0,3.0,29,0.00,,,0.00,1007.0,meteohub,2013-05-14 16:14:00,
2013-05-14 12:19:00,59.2,27.0,30.09,South,180,3.0,3.0,29,0.00,,,0.00,1055.0,meteohub,2013-05-14 16:19:00,
2013-05-14 12:24:00,58.8,26.6,30.09,NE,34,0.0,2.0,29,0.00,,,0.00,1069.0,meteohub,2013-05-14 16:24:00,
2013-05-14 12:29:00,59.0,25.9,30.09,NNE,20,0.0,3.0,28,0.00,,,0.00,1065.0,meteohub,2013-05-14 16:29:00,
2013-05-14 12:34:00,59.5,29.7,30.09,WNW,283,1.0,5.0,32,0.00,,,0.00,1049.0,meteohub,2013-05-14 16:34:00,
2013-05-14 12:39:00,60.1,26.8,30.09,WSW,251,2.0,5.0,28,0.00,,,0.00,1042.0,meteohub,2013-05-14 16:39:00,
2013-05-14 12:44:00,60.3,26.1,30.09,East,83,1.0,5.0,27,0.00,,,0.00,976.0,meteohub,2013-05-14 16:44:00,
2013-05-14 12:50:00,60.4,28.9,30.09,East,94,0.0,4.0,30,0.00,,,0.00,907.0,meteohub,2013-05-14 16:50:00,
2013-05-14 12:55:00,61.0,26.8,30.09,East,87,3.0,4.0,27,0.00,,,0.00,900.0,meteohub,2013-05-14 16:55:00,
2013-05-14 13:00:00,60.6,25.5,30.09,West,259,0.0,4.0,26,0.00,,,0.00,784.0,meteohub,2013-05-14 17:00:00,
2013-05-14 13:05:00,60.4,27.1,30.09,SW,236,2.0,6.0,28,0.00,,,0.00,858.0,meteohub,2013-05-14 17:05:00,
2013-05-14 13:10:00,59.9,26.8,30.08,NNE,29,1.0,6.0,28,0.00,,,0.00,905.0,meteohub,2013-05-14 17:10:00,
2013-05-14 13:15:00,59.7,25.7,30.09,East,88,2.0,6.0,27,0.00,,,0.00,830.0,meteohub,2013-05-14 17:15:00,
2013-05-14 13:20:00,59.7,24.8,30.09,East,91,0.0,4.0,26,0.00,,,0.00,902.0,meteohub,2013-05-14 17:20:00,
2013-05-14 13:25:00,59.7,24.8,30.08,NNE,15,0.0,3.0,26,0.00,,,0.00,916.0,meteohub,2013-05-14 17:25:00,
2013-05-14 13:30:00,59.9,26.8,30.08,NW,314,0.0,3.0,28,0.00,,,0.00,896.0,meteohub,2013-05-14 17:30:00,
2013-05-14 13:35:00,60.3,26.1,30.08,SSW,212,0.0,3.0,27,0.00,,,0.00,896.0,meteohub,2013-05-14 17:35:00,
2013-05-14 13:40:00,61.0,25.9,30.08,North,5,3.0,3.0,26,0.00,,,0.00,849.0,meteohub,2013-05-14 17:40:00,
2013-05-14 13:45:00,61.2,32.5,30.08,NNW,346,1.0,4.0,34,0.00,,,0.00,805.0,meteohub,2013-05-14 17:45:00,
2013-05-14 13:51:00,61.0,25.0,30.08,East,100,0.0,4.0,25,0.00,,,0.00,770.0,meteohub,2013-05-14 17:51:00,
2013-05-14 13:56:00,60.6,31.3,30.08,South,189,0.0,4.0,33,0.00,,,0.00,747.0,meteohub,2013-05-14 17:56:00,
2013-05-14 14:01:00,60.4,32.7,30.07,NE,34,2.0,4.0,35,0.00,,,0.00,842.0,meteohub,2013-05-14 18:01:00,
2013-05-14 14:06:00,60.8,30.0,30.07,ESE,116,1.0,4.0,31,0.00,,,0.00,835.0,meteohub,2013-05-14 18:06:00,
2013-05-14 14:11:00,60.6,29.8,30.07,SSW,211,0.0,4.0,31,0.00,,,0.00,886.0,meteohub,2013-05-14 18:11:00,
2013-05-14 14:16:00,60.6,27.3,30.07,SW,229,1.0,4.0,28,0.00,,,0.00,888.0,meteohub,2013-05-14 18:16:00,
2013-05-14 14:21:00,60.6,34.2,30.07,ESE,106,1.0,4.0,37,0.00,,,0.00,919.0,meteohub,2013-05-14 18:21:00,
2013-05-14 14:26:00,61.0,26.8,30.06,SW,223,1.0,3.0,27,0.00,,,0.00,895.0,meteohub,2013-05-14 18:26:00,
2013-05-14 14:31:00,61.2,26.1,30.06,East,88,2.0,3.0,26,0.00,,,0.00,847.0,meteohub,2013-05-14 18:31:00,
2013-05-14 14:36:00,60.4,29.7,30.06,ESE,103,4.0,5.0,31,0.00,,,0.00,742.0,meteohub,2013-05-14 18:36:00,
2013-05-14 14:41:00,60.4,30.4,30.06,ENE,65,2.0,6.0,32,0.00,,,0.00,664.0,meteohub,2013-05-14 18:41:00,
2013-05-14 14:46:00,61.0,29.3,30.06,ESE,107,0.0,6.0,30,0.00,,,0.00,677.0,meteohub,2013-05-14 18:46:00,
2013-05-14 14:51:00,61.3,27.1,30.06,SE,130,2.0,6.0,27,0.00,,,0.00,763.0,meteohub,2013-05-14 18:51:00,
2013-05-14 14:57:00,61.5,28.9,30.06,ESE,105,1.0,5.0,29,0.00,,,0.00,742.0,meteohub,2013-05-14 18:57:00,
2013-05-14 15:02:00,60.8,30.0,30.06,West,273,2.0,10.0,31,0.00,,,0.00,729.0,meteohub,2013-05-14 19:02:00,
2013-05-14 15:07:00,60.6,30.6,30.06,NE,46,1.0,10.0,32,0.00,,,0.00,738.0,meteohub,2013-05-14 19:07:00,
2013-05-14 15:12:00,60.8,27.5,30.05,SSE,153,1.0,10.0,28,0.00,,,0.00,729.0,meteohub,2013-05-14 19:12:00,
2013-05-14 15:17:00,60.8,27.5,30.05,WNW,294,1.0,7.0,28,0.00,,,0.00,740.0,meteohub,2013-05-14 19:17:00,
2013-05-14 15:22:00,60.6,28.9,30.05,East,101,3.0,5.0,30,0.00,,,0.00,649.0,meteohub,2013-05-14 19:22:00,
2013-05-14 15:27:00,60.4,26.2,30.05,SSW,207,0.0,3.0,27,0.00,,,0.00,744.0,meteohub,2013-05-14 19:27:00,
2013-05-14 15:32:00,61.0,26.8,30.05,SW,219,1.0,3.0,27,0.00,,,0.00,647.0,meteohub,2013-05-14 19:32:00,
2013-05-14 15:37:00,61.3,26.2,30.05,ESE,113,0.0,3.0,26,0.00,,,0.00,636.0,meteohub,2013-05-14 19:37:00,
2013-05-14 15:42:00,61.5,29.8,30.05,ESE,121,1.0,3.0,30,0.00,,,0.00,598.0,meteohub,2013-05-14 19:42:00,
2013-05-14 15:47:00,61.5,31.5,30.04,WNW,284,0.0,2.0,32,0.00,,,0.00,628.0,meteohub,2013-05-14 19:47:00,
2013-05-14 15:52:00,61.3,27.9,30.04,North,9,1.0,5.0,28,0.00,,,0.00,721.0,meteohub,2013-05-14 19:52:00,
2013-05-14 15:57:00,61.2,27.9,30.04,SW,223,2.0,5.0,28,0.00,,,0.00,601.0,meteohub,2013-05-14 19:57:00,
2013-05-14 16:02:00,61.5,26.2,30.04,South,190,1.0,5.0,26,0.00,,,0.00,499.0,meteohub,2013-05-14 20:02:00,
2013-05-14 16:07:00,61.2,27.9,30.04,ENE,73,1.0,3.0,28,0.00,,,0.00,206.0,meteohub,2013-05-14 20:07:00,
2013-05-14 16:12:00,60.8,28.4,30.04,WSW,257,4.0,4.0,29,0.00,,,0.00,283.0,meteohub,2013-05-14 20:12:00,
2013-05-14 16:17:00,60.3,28.8,30.04,East,81,0.0,5.0,30,0.00,,,0.00,499.0,meteohub,2013-05-14 20:17:00,
2013-05-14 16:22:00,59.7,27.3,30.04,North,11,1.0,5.0,29,0.00,,,0.00,364.0,meteohub,2013-05-14 20:22:00,
2013-05-14 16:28:00,59.5,28.0,30.04,South,177,0.0,8.0,30,0.00,,,0.00,255.0,meteohub,2013-05-14 20:28:00,
2013-05-14 16:33:00,59.5,27.3,30.04,ENE,74,0.0,8.0,29,0.00,,,0.00,415.0,meteohub,2013-05-14 20:33:00,
2013-05-14 16:38:00,59.5,28.0,30.04,SSW,203,0.0,8.0,30,0.00,,,0.00,214.0,meteohub,2013-05-14 20:38:00,
2013-05-14 16:43:00,59.2,27.7,30.04,West,261,0.0,6.0,30,0.00,,,0.00,162.0,meteohub,2013-05-14 20:43:00,
2013-05-14 16:48:00,58.8,26.6,30.04,SE,136,0.0,6.0,29,0.00,,,0.00,134.0,meteohub,2013-05-14 20:48:00,
2013-05-14 16:53:00,58.6,28.9,30.04,WSW,242,0.0,6.0,32,0.00,,,0.00,146.0,meteohub,2013-05-14 20:53:00,
2013-05-14 16:58:00,58.6,31.1,30.04,South,186,0.0,5.0,35,0.00,,,0.00,171.0,meteohub,2013-05-14 20:58:00,
2013-05-14 17:03:00,58.6,28.0,30.04,NNW,347,0.0,6.0,31,0.00,,,0.00,185.0,meteohub,2013-05-14 21:03:00,
2013-05-14 17:08:00,58.5,27.1,30.03,NNW,347,0.0,10.0,30,0.00,,,0.00,285.0,meteohub,2013-05-14 21:08:00,
2013-05-14 17:13:00,58.5,30.2,30.03,NE,50,0.0,10.0,34,0.00,,,0.00,70.0,meteohub,2013-05-14 21:13:00,
2013-05-14 17:18:00,58.3,28.6,30.03,ESE,123,0.0,4.0,32,0.00,,,0.00,70.0,meteohub,2013-05-14 21:18:00,
2013-05-14 17:23:00,58.3,30.0,30.03,SE,124,1.0,3.0,34,0.00,,,0.00,53.0,meteohub,2013-05-14 21:23:00,
2013-05-14 17:28:00,58.1,31.3,30.03,South,188,0.0,4.0,36,0.00,,,0.00,53.0,meteohub,2013-05-14 21:28:00,
2013-05-14 17:34:00,57.9,30.4,30.03,ENE,74,0.0,4.0,35,0.00,,,0.00,49.0,meteohub,2013-05-14 21:34:00,
2013-05-14 17:39:00,57.9,31.8,30.03,ENE,74,0.0,4.0,37,0.00,,,0.00,93.0,meteohub,2013-05-14 21:39:00,
2013-05-14 17:44:00,57.7,26.4,30.03,ENE,74,0.0,2.0,30,0.00,,,0.00,51.0,meteohub,2013-05-14 21:44:00,
2013-05-14 17:49:00,57.7,29.5,30.03,East,90,1.0,2.0,34,0.00,,,0.00,56.0,meteohub,2013-05-14 21:49:00,
2013-05-14 17:54:00,57.7,29.5,30.03,ESE,107,0.0,5.0,34,0.00,,,0.00,51.0,meteohub,2013-05-14 21:54:00,
2013-05-14 17:59:00,57.7,28.0,30.03,SSE,150,0.0,5.0,32,0.00,,,0.00,51.0,meteohub,2013-05-14 21:59:00,
2013-05-14 18:04:00,57.7,30.9,30.04,SSE,153,0.0,5.0,36,0.00,,,0.00,47.0,meteohub,2013-05-14 22:04:00,
2013-05-14 18:09:00,57.6,30.0,30.03,SSE,153,0.0,2.0,35,0.00,,,0.00,40.0,meteohub,2013-05-14 22:09:00,
2013-05-14 18:14:00,57.4,27.0,30.03,SSE,153,0.0,2.0,31,0.00,,,0.00,30.0,meteohub,2013-05-14 22:14:00,
2013-05-14 18:19:00,57.4,29.3,30.03,SSE,153,0.0,2.0,34,0.00,,,0.00,49.0,meteohub,2013-05-14 22:19:00,
2013-05-14 18:25:00,57.0,30.4,30.03,SSE,153,0.0,1.0,36,0.00,,,0.00,39.0,meteohub,2013-05-14 22:25:00,
2013-05-14 18:30:00,56.8,33.4,30.03,SE,136,0.0,1.0,41,0.00,,,0.00,35.0,meteohub,2013-05-14 22:30:00,
2013-05-14 18:35:00,56.7,30.0,30.03,SE,136,0.0,2.0,36,0.00,,,0.00,33.0,meteohub,2013-05-14 22:35:00,
2013-05-14 18:40:00,56.5,33.6,30.04,SSE,156,0.0,2.0,42,0.00,,,0.00,33.0,meteohub,2013-05-14 22:40:00,
2013-05-14 18:48:00,55.9,32.0,30.04,South,185,0.0,1.0,40,0.00,,,0.00,28.0,meteohub,2013-05-14 22:48:00,
2013-05-14 18:53:00,55.8,30.6,30.04,South,185,0.0,1.0,38,0.00,,,0.00,26.0,meteohub,2013-05-14 22:53:00,
2013-05-14 18:58:00,55.6,33.4,30.04,South,185,0.0,1.0,43,0.00,,,0.00,16.0,meteohub,2013-05-14 22:58:00,
2013-05-14 19:03:00,55.2,32.0,30.03,South,178,0.0,1.0,41,0.00,,,0.00,21.0,meteohub,2013-05-14 23:03:00,
2013-05-14 19:08:00,54.9,33.4,30.03,South,177,0.0,1.0,44,0.00,,,0.00,21.0,meteohub,2013-05-14 23:08:00,
2013-05-14 19:13:00,54.5,34.2,30.03,South,177,0.0,2.0,46,0.00,,,0.00,19.0,meteohub,2013-05-14 23:13:00,
2013-05-14 19:18:00,54.1,32.2,30.04,South,177,0.0,2.0,43,0.00,,,0.00,18.0,meteohub,2013-05-14 23:18:00,
2013-05-14 19:23:00,54.0,31.5,30.04,South,177,0.0,1.0,42,0.00,,,0.00,14.0,meteohub,2013-05-14 23:23:00,
2013-05-14 19:29:00,53.6,31.6,30.04,South,177,0.0,1.0,43,0.00,,,0.00,11.0,meteohub,2013-05-14 23:29:00,
2013-05-14 19:34:00,53.2,31.3,30.04,South,177,0.0,0.0,43,0.00,,,0.00,11.0,meteohub,2013-05-14 23:34:00,
2013-05-14 19:39:00,52.9,31.6,30.04,South,177,0.0,0.0,44,0.00,,,0.00,9.0,meteohub,2013-05-14 23:39:00,
2013-05-14 19:44:00,52.3,32.7,30.04,South,177,0.0,0.0,47,0.00,,,0.00,9.0,meteohub,2013-05-14 23:44:00,
2013-05-14 19:49:00,51.8,32.7,30.04,South,177,0.0,0.0,48,0.00,,,0.00,7.0,meteohub,2013-05-14 23:49:00,
2013-05-14 19:54:00,51.4,33.4,30.04,South,177,0.0,0.0,50,0.00,,,0.00,5.0,meteohub,2013-05-14 23:54:00,
2013-05-14 20:05:00,50.4,33.8,30.04,South,177,0.0,0.0,53,0.00,,,0.00,0.0,meteohub,2013-05-15 00:05:00,
2013-05-14 20:10:00,49.8,33.4,30.04,South,177,0.0,0.0,53,0.00,,,0.00,0.0,meteohub,2013-05-15 00:10:00,
2013-05-14 20:15:00,49.6,35.1,30.04,South,177,0.0,0.0,57,0.00,,,0.00,0.0,meteohub,2013-05-15 00:15:00,
2013-05-14 20:20:00,49.3,35.6,30.04,South,177,0.0,0.0,59,0.00,,,0.00,0.0,meteohub,2013-05-15 00:20:00,
2013-05-14 20:25:00,48.9,35.2,30.04,South,177,0.0,0.0,59,0.00,,,0.00,0.0,meteohub,2013-05-15 00:25:00,
2013-05-14 20:30:00,48.6,34.9,30.04,South,177,0.0,0.0,59,0.00,,,0.00,0.0,meteohub,2013-05-15 00:30:00,
2013-05-14 20:36:00,48.4,34.7,30.04,South,177,0.0,0.0,59,0.00,,,0.00,0.0,meteohub,2013-05-15 00:36:00,
2013-05-14 20:41:00,48.2,34.9,30.05,South,177,0.0,0.0,60,0.00,,,0.00,0.0,meteohub,2013-05-15 00:41:00,
2013-05-14 20:46:00,48.0,36.9,30.05,South,177,0.0,0.0,65,0.00,,,0.00,0.0,meteohub,2013-05-15 00:46:00,
2013-05-14 20:51:00,48.0,36.5,30.05,South,177,0.0,0.0,64,0.00,,,0.00,0.0,meteohub,2013-05-15 00:51:00,
2013-05-14 20:56:00,47.8,34.2,30.05,South,182,0.0,1.0,59,0.00,,,0.00,0.0,meteohub,2013-05-15 00:56:00,
2013-05-14 21:01:00,47.8,33.8,30.06,South,182,0.0,1.0,58,0.00,,,0.00,0.0,meteohub,2013-05-15 01:01:00,
2013-05-14 21:06:00,48.0,34.0,30.06,South,182,0.0,1.0,58,0.00,,,0.00,0.0,meteohub,2013-05-15 01:06:00,
2013-05-14 21:11:00,48.0,34.3,30.06,South,182,0.0,1.0,59,0.00,,,0.00,0.0,meteohub,2013-05-15 01:11:00,
2013-05-14 21:16:00,48.0,34.9,30.06,South,182,0.0,2.0,60,0.00,,,0.00,0.0,meteohub,2013-05-15 01:16:00,
2013-05-14 21:21:00,47.8,34.2,30.06,South,182,1.0,2.0,59,0.00,,,0.00,0.0,meteohub,2013-05-15 01:21:00,
2013-05-14 21:26:00,47.7,33.6,30.06,South,182,0.0,2.0,58,0.00,,,0.00,0.0,meteohub,2013-05-15 01:26:00,
2013-05-14 21:31:00,47.7,34.9,30.06,South,182,0.0,2.0,61,0.00,,,0.00,0.0,meteohub,2013-05-15 01:31:00,
2013-05-14 21:37:00,47.5,33.4,30.06,South,182,1.0,2.0,58,0.00,,,0.00,0.0,meteohub,2013-05-15 01:37:00,
2013-05-14 21:42:00,47.5,33.1,30.06,South,182,0.0,1.0,57,0.00,,,0.00,0.0,meteohub,2013-05-15 01:42:00,
2013-05-14 21:47:00,47.5,33.4,30.06,South,184,0.0,2.0,58,0.00,,,0.00,0.0,meteohub,2013-05-15 01:47:00,
2013-05-14 21:52:00,47.1,33.4,30.07,South,184,0.0,2.0,59,0.00,,,0.00,0.0,meteohub,2013-05-15 01:52:00,
2013-05-14 21:57:00,46.9,33.4,30.06,South,184,0.0,2.0,59,0.00,,,0.00,0.0,meteohub,2013-05-15 01:57:00,
2013-05-14 22:02:00,46.8,33.3,30.07,South,184,0.0,1.0,59,0.00,,,0.00,0.0,meteohub,2013-05-15 02:02:00,
2013-05-14 22:07:00,46.8,33.3,30.06,South,184,0.0,1.0,59,0.00,,,0.00,0.0,meteohub,2013-05-15 02:07:00,
2013-05-14 22:12:00,46.6,33.4,30.06,South,184,0.0,1.0,60,0.00,,,0.00,0.0,meteohub,2013-05-15 02:12:00,
2013-05-14 22:17:00,46.4,33.6,30.07,ESE,119,0.0,1.0,61,0.00,,,0.00,0.0,meteohub,2013-05-15 02:17:00,
2013-05-14 22:22:00,46.2,32.2,30.07,SE,128,0.0,2.0,58,0.00,,,0.00,0.0,meteohub,2013-05-15 02:22:00,
2013-05-14 22:27:00,46.2,31.8,30.07,SSW,213,1.0,2.0,57,0.00,,,0.00,0.0,meteohub,2013-05-15 02:27:00,
2013-05-14 22:32:00,46.2,32.7,30.07,SSW,213,0.0,2.0,59,0.00,,,0.00,0.0,meteohub,2013-05-15 02:32:00,
2013-05-14 22:37:00,46.0,32.0,30.07,SSW,213,0.0,2.0,58,0.00,,,0.00,0.0,meteohub,2013-05-15 02:37:00,
2013-05-14 22:42:00,46.0,31.6,30.07,SSW,213,0.0,2.0,57,0.00,,,0.00,0.0,meteohub,2013-05-15 02:42:00,
2013-05-14 22:47:00,45.9,32.4,30.07,SSW,213,0.0,1.0,59,0.00,,,0.00,0.0,meteohub,2013-05-15 02:47:00,
2013-05-14 22:52:00,45.9,32.7,30.07,SSW,213,0.0,0.0,60,0.00,,,0.00,0.0,meteohub,2013-05-15 02:52:00,
2013-05-14 22:57:00,45.7,33.1,30.07,SSW,213,0.0,0.0,61,0.00,,,0.00,0.0,meteohub,2013-05-15 02:57:00,
2013-05-14 23:02:00,45.3,32.2,30.07,SSW,213,0.0,0.0,60,0.00,,,0.00,0.0,meteohub,2013-05-15 03:02:00,
2013-05-14 23:07:00,45.1,32.5,30.07,SSW,213,0.0,0.0,61,0.00,,,0.00,0.0,meteohub,2013-05-15 03:07:00,
2013-05-14 23:12:00,45.0,32.7,30.07,SSW,213,0.0,0.0,62,0.00,,,0.00,0.0,meteohub,2013-05-15 03:12:00,
2013-05-14 23:17:00,45.0,32.0,30.07,SSW,213,0.0,0.0,60,0.00,,,0.00,0.0,meteohub,2013-05-15 03:17:00,
2013-05-14 23:22:00,44.8,32.5,30.07,SSW,213,0.0,1.0,62,0.00,,,0.00,0.0,meteohub,2013-05-15 03:22:00,
2013-05-14 23:27:00,44.8,32.5,30.07,SSW,213,0.0,1.0,62,0.00,,,0.00,0.0,meteohub,2013-05-15 03:27:00,
2013-05-14 23:32:00,44.6,32.7,30.07,SSW,213,0.0,1.0,63,0.00,,,0.00,0.0,meteohub,2013-05-15 03:32:00,
2013-05-14 23:37:00,44.6,32.7,30.07,SSW,213,0.0,1.0,63,0.00,,,0.00,0.0,meteohub,2013-05-15 03:37:00,
2013-05-14 23:42:00,44.6,32.4,30.08,SSW,213,0.0,1.0,62,0.00,,,0.00,0.0,meteohub,2013-05-15 03:42:00,
2013-05-14 23:47:00,44.6,32.4,30.08,SSW,213,0.0,1.0,62,0.00,,,0.00,0.0,meteohub,2013-05-15 03:47:00,
2013-05-14 23:52:00,44.6,32.0,30.08,SSW,213,0.0,1.0,61,0.00,,,0.00,0.0,meteohub,2013-05-15 03:52:00,
2013-05-14 23:57:00,44.8,32.2,30.08,SSW,213,0.0,1.0,61,0.00,,,0.00,0.0,meteohub,2013-05-15 03:57:00,